createdAt,value
2019-03-30T00:02:51.800Z,2.90
2019-03-30T00:07:54.722Z,2.80
2019-03-30T00:12:57.668Z,2.80
2019-03-30T00:18:00.578Z,2.70
2019-03-30T00:23:03.749Z,2.70
2019-03-30T00:28:06.733Z,2.70
2019-03-30T00:33:09.729Z,2.70
2019-03-30T00:38:12.703Z,2.50
2019-03-30T00:43:16.502Z,2.40
2019-03-30T00:48:20.366Z,2.40
2019-03-30T00:53:25.918Z,2.40
2019-03-30T00:58:28.890Z,2.30
2019-03-30T01:03:36.971Z,2.30
2019-03-30T01:08:40.068Z,2.20
2019-03-30T01:13:43.015Z,2.20
2019-03-30T01:18:45.965Z,2.30
2019-03-30T01:23:50.278Z,2.20
2019-03-30T01:28:53.275Z,2.20
2019-03-30T01:33:56.589Z,2.20
2019-03-30T01:38:59.577Z,2.10
2019-03-30T01:44:02.620Z,2.00
2019-03-30T02:27:58.335Z,1.60
2019-03-30T02:33:01.346Z,1.60
2019-03-30T02:38:05.144Z,1.60
2019-03-30T02:43:08.226Z,1.60
2019-03-30T02:48:11.247Z,1.50
2019-03-30T05:21:52.245Z,0.80
2019-03-30T05:26:56.358Z,0.90
2019-03-30T05:42:46.746Z,1.20
2019-03-30T05:47:50.086Z,1.30
2019-03-30T06:20:12.851Z,2.70
2019-03-30T06:25:16.570Z,3.00
2019-03-30T06:30:22.450Z,3.20
2019-03-30T06:35:27.842Z,3.50
2019-03-30T06:40:33.610Z,3.80
2019-03-30T06:45:37.513Z,4.00
2019-03-30T06:50:41.028Z,4.30
2019-03-30T08:07:51.759Z,9.50
2019-03-30T08:12:55.820Z,9.90
2019-03-30T08:17:58.858Z,10.30
2019-03-30T08:23:01.906Z,10.60
2019-03-30T08:28:04.912Z,11.00
2019-03-30T08:33:08.277Z,11.30
2019-03-30T08:38:11.414Z,11.60
2019-03-30T08:43:14.762Z,11.90
2019-03-30T08:48:17.759Z,12.10
2019-03-30T08:53:20.707Z,12.30
2019-03-30T08:58:24.148Z,12.60
2019-03-30T09:03:27.816Z,12.80
2019-03-30T09:08:31.884Z,13.00
2019-03-30T09:13:36.052Z,13.20
2019-03-30T09:18:39.016Z,13.40
2019-03-30T09:23:42.038Z,13.60
2019-03-30T09:28:45.000Z,13.80
2019-03-30T09:33:48.569Z,13.90
2019-03-30T09:38:51.735Z,14.10
2019-03-30T09:43:55.367Z,14.00
2019-03-30T09:48:58.427Z,14.50
2019-03-30T09:54:01.435Z,14.70
2019-03-30T09:59:04.523Z,14.80
2019-03-30T10:09:42.354Z,15.10
2019-03-30T10:14:45.612Z,15.20
2019-03-30T10:20:03.571Z,15.40
2019-03-30T10:24:53.906Z,15.50
2019-03-30T10:29:57.365Z,15.60
2019-03-30T10:35:00.779Z,15.80
2019-03-30T10:40:04.705Z,16.00
2019-03-30T10:45:07.828Z,16.20
2019-03-30T10:50:11.643Z,16.40
2019-03-30T10:55:14.973Z,16.60
2019-03-30T11:00:35.943Z,16.60
2019-03-30T11:05:39.189Z,16.80
2019-03-30T11:10:42.275Z,17.00
2019-03-30T11:15:45.187Z,17.20
2019-03-30T11:20:48.547Z,17.40
2019-03-30T11:25:52.807Z,17.60
2019-03-30T11:30:55.765Z,17.80
2019-03-30T11:36:00.211Z,17.90
2019-03-30T11:41:03.159Z,18.10
2019-03-30T11:46:06.175Z,18.30
2019-03-30T11:51:09.155Z,18.40
2019-03-30T11:56:12.159Z,18.50
2019-03-30T12:01:15.123Z,18.60
2019-03-30T12:06:18.262Z,18.70
2019-03-30T12:11:21.843Z,18.70
2019-03-30T12:16:24.759Z,18.70
2019-03-30T12:21:27.711Z,18.80
2019-03-30T12:26:30.637Z,18.90
2019-03-30T12:31:33.656Z,19.10
2019-03-30T12:36:37.395Z,19.30
2019-03-30T12:41:40.317Z,19.40
2019-03-30T12:46:43.469Z,19.60
2019-03-30T12:51:46.450Z,19.80
2019-03-30T12:56:51.104Z,19.90
2019-03-30T13:01:53.999Z,20.10
2019-03-30T13:06:57.116Z,20.20
2019-03-30T13:12:00.003Z,20.30
2019-03-30T13:17:03.497Z,20.30
2019-03-30T13:22:06.400Z,20.50
2019-03-30T13:27:12.735Z,20.30
2019-03-30T13:32:14.080Z,20.50
2019-03-30T13:37:18.180Z,20.70
2019-03-30T13:42:21.123Z,20.70
2019-03-30T13:47:24.086Z,20.90
2019-03-30T13:52:27.639Z,20.90
2019-03-30T13:57:30.609Z,20.80
2019-03-30T14:02:33.748Z,20.90
2019-03-30T14:07:37.052Z,21.00
2019-03-30T14:12:40.001Z,21.10
2019-03-30T14:17:44.188Z,21.20
2019-03-30T14:22:47.440Z,21.40
2019-03-30T14:27:50.407Z,22.10
2019-03-30T14:32:53.835Z,24.10
2019-03-30T14:37:58.220Z,26.30
2019-03-30T14:43:02.678Z,27.60
2019-03-30T14:48:05.700Z,29.90
2019-03-30T14:53:08.721Z,31.70
2019-03-30T14:58:11.656Z,33.40
2019-03-30T15:03:14.939Z,33.90
2019-03-30T15:08:19.176Z,33.10
2019-03-30T15:13:22.239Z,34.20
2019-03-30T15:18:25.146Z,35.20
2019-03-30T15:23:28.094Z,36.00
2019-03-30T15:28:31.424Z,36.20
2019-03-30T15:33:34.377Z,36.30
2019-03-30T15:38:37.668Z,36.20
2019-03-30T15:43:40.576Z,36.70
2019-03-30T15:48:43.625Z,36.70
2019-03-30T15:53:46.940Z,36.60
2019-03-30T15:58:50.064Z,36.10
2019-03-30T16:03:53.115Z,35.70
2019-03-30T16:08:56.288Z,35.10
2019-03-30T16:13:59.573Z,34.60
2019-03-30T16:19:02.519Z,33.70
2019-03-30T16:24:05.751Z,33.60
2019-03-30T16:29:09.776Z,33.00
2019-03-30T16:34:12.786Z,32.00
2019-03-30T16:39:15.894Z,30.50
2019-03-30T16:44:18.818Z,29.40
2019-03-30T16:49:21.811Z,27.80
2019-03-30T16:54:24.695Z,26.30
2019-03-30T16:59:27.980Z,25.10
2019-03-30T17:04:30.887Z,24.10
2019-03-30T17:09:34.719Z,23.00
2019-03-30T17:14:38.131Z,21.50
2019-03-30T17:19:42.307Z,20.00
2019-03-30T17:24:45.192Z,18.70
2019-03-30T17:29:48.803Z,17.60
2019-03-30T17:34:51.967Z,16.80
2019-03-30T17:39:55.078Z,15.90
2019-03-30T17:44:58.291Z,15.20
2019-03-30T17:50:01.211Z,14.60
2019-03-30T17:55:04.164Z,14.00
2019-03-30T18:00:09.259Z,13.50
2019-03-30T18:05:12.491Z,13.20
2019-03-30T18:10:15.488Z,12.80
2019-03-30T18:15:19.444Z,12.40
2019-03-30T18:20:22.741Z,11.80
2019-03-30T18:25:25.767Z,11.60
2019-03-30T18:30:36.724Z,11.30
2019-03-30T18:35:39.915Z,11.10
2019-03-30T18:40:43.111Z,11.00
2019-03-30T18:45:46.268Z,11.00
2019-03-30T18:50:49.243Z,10.80
2019-03-30T18:55:52.192Z,10.60
2019-03-30T19:00:55.213Z,10.40
2019-03-30T19:05:58.292Z,10.30
2019-03-30T19:11:01.423Z,10.10
2019-03-30T19:16:04.591Z,10.00
2019-03-30T19:21:07.568Z,9.80
2019-03-30T19:26:10.573Z,9.70
2019-03-30T19:31:13.548Z,9.50
2019-03-30T19:36:16.562Z,9.40
2019-03-30T19:41:19.623Z,9.20
2019-03-30T19:46:22.731Z,9.10
2019-03-30T19:51:25.720Z,9.00
2019-03-30T19:56:28.652Z,9.00
2019-03-30T20:01:31.599Z,8.80
2019-03-30T20:06:34.675Z,8.70
2019-03-30T20:11:37.678Z,8.60
2019-03-30T20:16:42.326Z,8.40
2019-03-30T20:21:45.879Z,8.20
2019-03-30T20:26:48.704Z,8.10
2019-03-30T20:31:51.760Z,8.00
2019-03-30T20:36:54.768Z,7.90
2019-03-30T20:41:57.688Z,7.70
2019-03-30T20:47:01.035Z,7.50
2019-03-30T20:52:03.911Z,7.30
2019-03-30T20:57:06.893Z,7.20
2019-03-30T21:02:09.876Z,7.00
2019-03-30T21:07:12.850Z,6.80
2019-03-30T21:12:15.859Z,6.60
2019-03-30T21:17:19.167Z,6.60
2019-03-30T21:22:22.650Z,6.50
2019-03-30T21:27:25.847Z,6.30
2019-03-30T21:32:28.819Z,6.20
2019-03-30T21:37:31.917Z,6.10
2019-03-30T21:42:35.188Z,6.00
2019-03-30T21:47:39.555Z,5.90
2019-03-30T21:52:44.715Z,5.90
2019-03-30T21:57:47.947Z,5.80
2019-03-30T22:02:50.856Z,5.70
2019-03-30T22:07:53.778Z,5.70
2019-03-30T22:12:56.788Z,5.60
2019-03-30T22:17:59.633Z,5.50
2019-03-30T22:23:04.191Z,5.40
2019-03-30T22:28:07.148Z,5.30
2019-03-30T22:33:10.050Z,5.20
2019-03-30T22:38:13.081Z,5.10
2019-03-30T22:43:16.409Z,5.10
2019-03-30T22:48:19.244Z,5.00
2019-03-30T22:53:24.039Z,5.00
2019-03-30T22:58:26.955Z,4.90
2019-03-30T23:03:29.956Z,4.80
2019-03-30T23:08:32.904Z,4.60
2019-03-30T23:13:35.855Z,4.60
2019-03-30T23:18:38.818Z,4.50
2019-03-30T23:23:52.364Z,4.40
2019-03-30T23:28:59.422Z,4.40
2019-03-30T23:34:02.121Z,4.40
2019-03-30T23:39:07.775Z,4.30
2019-03-30T23:44:10.688Z,4.20
2019-03-30T23:49:13.636Z,4.20
2019-03-30T23:54:18.535Z,4.20
2019-03-30T23:59:21.505Z,4.10
